sensor_id;sensor_type;location;lat;lon;timestamp;P1;durP1;ratioP1;P2;durP2;ratioP2
37284;SDS011;23172;53.550;9.964;2024-03-08T00:03:29;1999.90;;;999.90;;
37284;SDS011;23172;53.550;9.964;2024-03-08T00:08:31;1999.90;;;999.90;;
37284;SDS011;23172;53.550;9.964;2024-03-08T00:13:34;1999.90;;;999.90;;
37284;SDS011;23172;53.550;9.964;2024-03-08T00:18:36;1999.90;;;999.90;;
37284;SDS011;23172;53.550;9.964;2024-03-08T00:23:38;1999.90;;;999.90;;
37284;SDS011;23172;53.550;9.964;2024-03-08T00:28:41;1999.90;;;999.90;;
37284;SDS011;23172;53.550;9.964;2024-03-08T00:33:43;1999.90;;;999.90;;
37284;SDS011;23172;53.550;9.964;2024-03-08T00:38:45;1999.90;;;999.90;;
37284;SDS011;23172;53.550;9.964;2024-03-08T00:43:49;1999.90;;;999.90;;
37284;SDS011;23172;53.550;9.964;2024-03-08T00:48:51;1999.90;;;999.90;;
37284;SDS011;23172;53.550;9.964;2024-03-08T00:53:52;1999.90;;;999.90;;
37284;SDS011;23172;53.550;9.964;2024-03-08T00:58:56;1999.90;;;999.90;;
37284;SDS011;23172;53.550;9.964;2024-03-08T01:03:57;1999.90;;;999.90;;
37284;SDS011;23172;53.550;9.964;2024-03-08T01:08:59;1999.90;;;999.90;;
37284;SDS011;23172;53.550;9.964;2024-03-08T01:14:03;1999.90;;;999.90;;
37284;SDS011;23172;53.550;9.964;2024-03-08T01:19:05;1999.90;;;999.90;;
37284;SDS011;23172;53.550;9.964;2024-03-08T01:24:06;1999.90;;;999.90;;
37284;SDS011;23172;53.550;9.964;2024-03-08T01:29:10;1999.90;;;999.90;;
37284;SDS011;23172;53.550;9.964;2024-03-08T01:34:12;1999.90;;;999.90;;
37284;SDS011;23172;53.550;9.964;2024-03-08T01:39:14;1999.90;;;999.90;;
37284;SDS011;23172;53.550;9.964;2024-03-08T01:44:18;1999.90;;;999.90;;
37284;SDS011;23172;53.550;9.964;2024-03-08T01:49:20;1999.90;;;999.90;;
37284;SDS011;23172;53.550;9.964;2024-03-08T01:54:23;1999.90;;;999.90;;
37284;SDS011;23172;53.550;9.964;2024-03-08T01:59:27;1638.18;;;771.35;;
37284;SDS011;23172;53.550;9.964;2024-03-08T02:04:29;1734.93;;;819.10;;
37284;SDS011;23172;53.550;9.964;2024-03-08T02:09:31;1691.97;;;800.47;;
37284;SDS011;23172;53.550;9.964;2024-03-08T02:14:35;1619.82;;;775.33;;
37284;SDS011;23172;53.550;9.964;2024-03-08T02:19:37;1999.90;;;999.90;;
37284;SDS011;23172;53.550;9.964;2024-03-08T02:24:40;1999.90;;;999.90;;
37284;SDS011;23172;53.550;9.964;2024-03-08T02:29:42;706.45;;;194.95;;
37284;SDS011;23172;53.550;9.964;2024-03-08T02:34:45;1582.43;;;763.45;;
37284;SDS011;23172;53.550;9.964;2024-03-08T02:39:48;865.17;;;262.02;;
37284;SDS011;23172;53.550;9.964;2024-03-08T02:44:50;1714.05;;;818.50;;
37284;SDS011;23172;53.550;9.964;2024-03-08T02:49:52;1999.90;;;999.90;;
37284;SDS011;23172;53.550;9.964;2024-03-08T02:54:55;1618.65;;;773.85;;
37284;SDS011;23172;53.550;9.964;2024-03-08T02:59:57;1725.35;;;807.97;;
37284;SDS011;23172;53.550;9.964;2024-03-08T03:05:00;1656.50;;;798.05;;
37284;SDS011;23172;53.550;9.964;2024-03-08T03:10:07;738.58;;;203.05;;
37284;SDS011;23172;53.550;9.964;2024-03-08T03:15:10;1604.43;;;772.55;;
37284;SDS011;23172;53.550;9.964;2024-03-08T03:20:12;1189.50;;;325.95;;
37284;SDS011;23172;53.550;9.964;2024-03-08T03:25:23;793.63;;;245.00;;
37284;SDS011;23172;53.550;9.964;2024-03-08T03:30:29;1700.45;;;807.08;;
37284;SDS011;23172;53.550;9.964;2024-03-08T03:35:33;756.35;;;257.20;;
37284;SDS011;23172;53.550;9.964;2024-03-08T03:40:37;1283.28;;;341.27;;
37284;SDS011;23172;53.550;9.964;2024-03-08T03:45:41;1121.25;;;347.67;;
37284;SDS011;23172;53.550;9.964;2024-03-08T03:50:43;1149.65;;;431.65;;
37284;SDS011;23172;53.550;9.964;2024-03-08T03:55:46;1317.25;;;386.55;;
37284;SDS011;23172;53.550;9.964;2024-03-08T04:00:48;792.35;;;253.90;;
37284;SDS011;23172;53.550;9.964;2024-03-08T04:05:50;966.38;;;367.73;;
37284;SDS011;23172;53.550;9.964;2024-03-08T04:10:53;902.28;;;276.63;;
37284;SDS011;23172;53.550;9.964;2024-03-08T04:15:55;863.03;;;245.57;;
37284;SDS011;23172;53.550;9.964;2024-03-08T04:20:57;796.45;;;245.90;;
37284;SDS011;23172;53.550;9.964;2024-03-08T04:26:00;982.65;;;309.17;;
37284;SDS011;23172;53.550;9.964;2024-03-08T04:31:02;1696.50;;;820.05;;
37284;SDS011;23172;53.550;9.964;2024-03-08T04:36:04;618.95;;;191.32;;
37284;SDS011;23172;53.550;9.964;2024-03-08T04:41:09;1203.85;;;374.40;;
37284;SDS011;23172;53.550;9.964;2024-03-08T04:46:11;692.67;;;195.93;;
37284;SDS011;23172;53.550;9.964;2024-03-08T04:51:13;1712.55;;;807.03;;
37284;SDS011;23172;53.550;9.964;2024-03-08T04:56:16;975.38;;;337.00;;
37284;SDS011;23172;53.550;9.964;2024-03-08T05:01:19;1159.50;;;421.30;;
37284;SDS011;23172;53.550;9.964;2024-03-08T05:06:21;1405.45;;;642.03;;
37284;SDS011;23172;53.550;9.964;2024-03-08T05:11:25;1110.22;;;534.92;;
37284;SDS011;23172;53.550;9.964;2024-03-08T05:16:27;1432.47;;;679.80;;
37284;SDS011;23172;53.550;9.964;2024-03-08T05:21:29;1482.82;;;645.13;;
37284;SDS011;23172;53.550;9.964;2024-03-08T05:26:32;1056.45;;;546.13;;
37284;SDS011;23172;53.550;9.964;2024-03-08T05:31:36;1496.97;;;760.38;;
37284;SDS011;23172;53.550;9.964;2024-03-08T05:36:44;1606.72;;;771.63;;
37284;SDS011;23172;53.550;9.964;2024-03-08T05:41:47;1472.97;;;750.08;;
37284;SDS011;23172;53.550;9.964;2024-03-08T05:46:50;1274.07;;;614.55;;
37284;SDS011;23172;53.550;9.964;2024-03-08T05:51:52;1345.45;;;708.80;;
37284;SDS011;23172;53.550;9.964;2024-03-08T05:56:55;1307.53;;;676.83;;
37284;SDS011;23172;53.550;9.964;2024-03-08T06:01:57;1335.70;;;745.10;;
37284;SDS011;23172;53.550;9.964;2024-03-08T06:06:59;1115.45;;;607.55;;
37284;SDS011;23172;53.550;9.964;2024-03-08T06:12:05;1310.93;;;640.50;;
37284;SDS011;23172;53.550;9.964;2024-03-08T06:17:07;1121.50;;;568.13;;
37284;SDS011;23172;53.550;9.964;2024-03-08T06:22:09;1423.72;;;668.78;;
37284;SDS011;23172;53.550;9.964;2024-03-08T06:27:12;1490.60;;;636.80;;
37284;SDS011;23172;53.550;9.964;2024-03-08T06:32:14;1451.80;;;648.50;;
37284;SDS011;23172;53.550;9.964;2024-03-08T06:37:16;1440.13;;;713.35;;
37284;SDS011;23172;53.550;9.964;2024-03-08T06:42:23;1243.88;;;567.03;;
37284;SDS011;23172;53.550;9.964;2024-03-08T06:47:25;1275.32;;;387.17;;
37284;SDS011;23172;53.550;9.964;2024-03-08T06:52:27;1999.90;;;999.90;;
37284;SDS011;23172;53.550;9.964;2024-03-08T06:57:30;1999.90;;;999.90;;
37284;SDS011;23172;53.550;9.964;2024-03-08T07:02:32;1999.90;;;999.90;;
37284;SDS011;23172;53.550;9.964;2024-03-08T07:07:35;1999.90;;;999.90;;
37284;SDS011;23172;53.550;9.964;2024-03-08T07:12:39;1999.90;;;999.90;;
37284;SDS011;23172;53.550;9.964;2024-03-08T07:17:40;1999.90;;;999.90;;
37284;SDS011;23172;53.550;9.964;2024-03-08T07:22:44;1999.90;;;999.90;;
37284;SDS011;23172;53.550;9.964;2024-03-08T07:27:49;1999.90;;;999.90;;
37284;SDS011;23172;53.550;9.964;2024-03-08T07:32:52;1999.90;;;999.90;;
37284;SDS011;23172;53.550;9.964;2024-03-08T07:37:54;1999.90;;;999.90;;
37284;SDS011;23172;53.550;9.964;2024-03-08T07:42:57;1999.90;;;999.90;;
37284;SDS011;23172;53.550;9.964;2024-03-08T07:48:00;1999.90;;;999.90;;
37284;SDS011;23172;53.550;9.964;2024-03-08T07:53:03;1999.90;;;999.90;;
37284;SDS011;23172;53.550;9.964;2024-03-08T07:58:07;1999.90;;;999.90;;
37284;SDS011;23172;53.550;9.964;2024-03-08T08:03:10;1999.90;;;999.90;;
37284;SDS011;23172;53.550;9.964;2024-03-08T08:08:12;1999.90;;;999.90;;
37284;SDS011;23172;53.550;9.964;2024-03-08T08:13:16;1999.90;;;999.90;;
37284;SDS011;23172;53.550;9.964;2024-03-08T08:18:18;1999.90;;;999.90;;
37284;SDS011;23172;53.550;9.964;2024-03-08T08:23:24;1999.90;;;999.90;;
37284;SDS011;23172;53.550;9.964;2024-03-08T08:28:28;1999.90;;;999.90;;
37284;SDS011;23172;53.550;9.964;2024-03-08T08:33:30;1999.90;;;999.90;;
37284;SDS011;23172;53.550;9.964;2024-03-08T08:38:35;1999.90;;;999.90;;
37284;SDS011;23172;53.550;9.964;2024-03-08T08:43:39;1999.90;;;999.90;;
37284;SDS011;23172;53.550;9.964;2024-03-08T08:48:43;1999.90;;;999.90;;
37284;SDS011;23172;53.550;9.964;2024-03-08T08:53:46;1999.90;;;999.90;;
37284;SDS011;23172;53.550;9.964;2024-03-08T08:58:50;1999.90;;;999.90;;
37284;SDS011;23172;53.550;9.964;2024-03-08T09:03:53;1999.90;;;999.90;;
37284;SDS011;23172;53.550;9.964;2024-03-08T09:08:55;1999.90;;;999.90;;
37284;SDS011;23172;53.550;9.964;2024-03-08T09:13:59;1999.90;;;999.90;;
37284;SDS011;23172;53.550;9.964;2024-03-08T09:19:02;1999.90;;;999.90;;
37284;SDS011;23172;53.550;9.964;2024-03-08T09:24:04;1999.90;;;999.90;;
37284;SDS011;23172;53.550;9.964;2024-03-08T09:29:08;1999.90;;;999.90;;
37284;SDS011;23172;53.550;9.964;2024-03-08T09:34:10;1999.90;;;999.90;;
37284;SDS011;23172;53.550;9.964;2024-03-08T09:39:12;1999.90;;;999.90;;
37284;SDS011;23172;53.550;9.964;2024-03-08T09:44:18;1999.90;;;999.90;;
37284;SDS011;23172;53.550;9.964;2024-03-08T09:49:20;1999.90;;;999.90;;
37284;SDS011;23172;53.550;9.964;2024-03-08T09:54:23;1999.90;;;999.90;;
37284;SDS011;23172;53.550;9.964;2024-03-08T09:59:27;1999.90;;;999.90;;
37284;SDS011;23172;53.550;9.964;2024-03-08T10:04:48;1999.90;;;999.90;;
37284;SDS011;23172;53.550;9.964;2024-03-08T10:09:51;1999.90;;;999.90;;
37284;SDS011;23172;53.550;9.964;2024-03-08T10:14:56;1999.90;;;999.90;;
37284;SDS011;23172;53.550;9.964;2024-03-08T10:19:59;1999.90;;;999.90;;
37284;SDS011;23172;53.550;9.964;2024-03-08T10:25:01;1999.90;;;999.90;;
37284;SDS011;23172;53.550;9.964;2024-03-08T10:30:08;1999.90;;;999.90;;
37284;SDS011;23172;53.550;9.964;2024-03-08T10:35:14;1999.90;;;999.90;;
37284;SDS011;23172;53.550;9.964;2024-03-08T10:40:17;1999.90;;;999.90;;
37284;SDS011;23172;53.550;9.964;2024-03-08T10:45:26;1999.90;;;999.90;;
37284;SDS011;23172;53.550;9.964;2024-03-08T10:50:32;1999.90;;;999.90;;
37284;SDS011;23172;53.550;9.964;2024-03-08T10:55:35;1999.90;;;999.90;;
37284;SDS011;23172;53.550;9.964;2024-03-08T11:00:42;1999.90;;;999.90;;
37284;SDS011;23172;53.550;9.964;2024-03-08T11:05:44;1999.90;;;999.90;;
37284;SDS011;23172;53.550;9.964;2024-03-08T11:10:49;1999.90;;;999.90;;
37284;SDS011;23172;53.550;9.964;2024-03-08T11:15:54;1999.90;;;999.90;;
37284;SDS011;23172;53.550;9.964;2024-03-08T11:20:56;1999.90;;;999.90;;
37284;SDS011;23172;53.550;9.964;2024-03-08T11:25:58;1999.90;;;999.90;;
37284;SDS011;23172;53.550;9.964;2024-03-08T11:36:26;1999.90;;;999.90;;
37284;SDS011;23172;53.550;9.964;2024-03-08T11:41:30;1999.90;;;999.90;;
37284;SDS011;23172;53.550;9.964;2024-03-08T11:46:33;1999.90;;;999.90;;
37284;SDS011;23172;53.550;9.964;2024-03-08T11:51:35;1999.90;;;999.90;;
37284;SDS011;23172;53.550;9.964;2024-03-08T11:56:37;1999.90;;;999.90;;
37284;SDS011;23172;53.550;9.964;2024-03-08T12:01:41;1999.90;;;999.90;;
37284;SDS011;23172;53.550;9.964;2024-03-08T12:06:44;1999.90;;;999.90;;
37284;SDS011;23172;53.550;9.964;2024-03-08T12:11:47;1999.90;;;999.90;;
37284;SDS011;23172;53.550;9.964;2024-03-08T12:16:52;1999.90;;;999.90;;
37284;SDS011;23172;53.550;9.964;2024-03-08T12:21:54;1999.90;;;999.90;;
37284;SDS011;23172;53.550;9.964;2024-03-08T12:26:56;1999.90;;;999.90;;
37284;SDS011;23172;53.550;9.964;2024-03-08T12:31:59;1999.90;;;999.90;;
37284;SDS011;23172;53.550;9.964;2024-03-08T12:37:02;1999.90;;;999.90;;
37284;SDS011;23172;53.550;9.964;2024-03-08T12:42:07;1999.90;;;999.90;;
37284;SDS011;23172;53.550;9.964;2024-03-08T12:47:10;1999.90;;;999.90;;
37284;SDS011;23172;53.550;9.964;2024-03-08T12:52:12;1999.90;;;999.90;;
37284;SDS011;23172;53.550;9.964;2024-03-08T12:57:14;1999.90;;;999.90;;
37284;SDS011;23172;53.550;9.964;2024-03-08T13:02:18;1999.90;;;999.90;;
37284;SDS011;23172;53.550;9.964;2024-03-08T13:07:20;1999.90;;;999.90;;
37284;SDS011;23172;53.550;9.964;2024-03-08T13:12:23;1999.90;;;999.90;;
37284;SDS011;23172;53.550;9.964;2024-03-08T13:17:26;1999.90;;;999.90;;
37284;SDS011;23172;53.550;9.964;2024-03-08T13:22:29;1999.90;;;999.90;;
37284;SDS011;23172;53.550;9.964;2024-03-08T13:27:31;1999.90;;;999.90;;
37284;SDS011;23172;53.550;9.964;2024-03-08T13:32:34;1999.90;;;999.90;;
37284;SDS011;23172;53.550;9.964;2024-03-08T13:37:36;1999.90;;;999.90;;
37284;SDS011;23172;53.550;9.964;2024-03-08T13:42:38;1999.90;;;999.90;;
37284;SDS011;23172;53.550;9.964;2024-03-08T13:47:41;1999.90;;;999.90;;
37284;SDS011;23172;53.550;9.964;2024-03-08T13:52:43;1999.90;;;999.90;;
37284;SDS011;23172;53.550;9.964;2024-03-08T13:57:45;1999.90;;;999.90;;
37284;SDS011;23172;53.550;9.964;2024-03-08T14:02:49;1999.90;;;999.90;;
37284;SDS011;23172;53.550;9.964;2024-03-08T14:07:52;1999.90;;;999.90;;
37284;SDS011;23172;53.550;9.964;2024-03-08T14:12:54;1999.90;;;999.90;;
37284;SDS011;23172;53.550;9.964;2024-03-08T14:17:57;1999.90;;;999.90;;
37284;SDS011;23172;53.550;9.964;2024-03-08T14:22:59;1999.90;;;999.90;;
37284;SDS011;23172;53.550;9.964;2024-03-08T14:28:01;1999.90;;;999.90;;
37284;SDS011;23172;53.550;9.964;2024-03-08T14:33:08;1999.90;;;999.90;;
37284;SDS011;23172;53.550;9.964;2024-03-08T14:38:10;1999.90;;;999.90;;
37284;SDS011;23172;53.550;9.964;2024-03-08T14:43:12;1999.90;;;999.90;;
37284;SDS011;23172;53.550;9.964;2024-03-08T14:48:16;1999.90;;;999.90;;
37284;SDS011;23172;53.550;9.964;2024-03-08T14:53:18;1999.90;;;999.90;;
37284;SDS011;23172;53.550;9.964;2024-03-08T14:58:20;1999.90;;;999.90;;
37284;SDS011;23172;53.550;9.964;2024-03-08T15:03:25;1999.90;;;999.90;;
37284;SDS011;23172;53.550;9.964;2024-03-08T15:08:28;1999.90;;;999.90;;
37284;SDS011;23172;53.550;9.964;2024-03-08T15:13:30;1999.90;;;999.90;;
37284;SDS011;23172;53.550;9.964;2024-03-08T15:18:40;1999.90;;;999.90;;
37284;SDS011;23172;53.550;9.964;2024-03-08T15:23:46;1999.90;;;999.90;;
37284;SDS011;23172;53.550;9.964;2024-03-08T15:28:52;1999.90;;;999.90;;
37284;SDS011;23172;53.550;9.964;2024-03-08T15:33:56;1999.90;;;999.90;;
37284;SDS011;23172;53.550;9.964;2024-03-08T15:39:00;1999.90;;;999.90;;
37284;SDS011;23172;53.550;9.964;2024-03-08T15:44:02;1999.90;;;999.90;;
37284;SDS011;23172;53.550;9.964;2024-03-08T15:49:06;1999.90;;;999.90;;
37284;SDS011;23172;53.550;9.964;2024-03-08T15:54:08;1999.90;;;999.90;;
37284;SDS011;23172;53.550;9.964;2024-03-08T15:59:16;1999.90;;;999.90;;
37284;SDS011;23172;53.550;9.964;2024-03-08T16:04:50;1999.90;;;999.90;;
37284;SDS011;23172;53.550;9.964;2024-03-08T16:10:25;1999.90;;;999.90;;
37284;SDS011;23172;53.550;9.964;2024-03-08T16:15:52;1999.90;;;999.90;;
37284;SDS011;23172;53.550;9.964;2024-03-08T16:21:08;1999.90;;;999.90;;
37284;SDS011;23172;53.550;9.964;2024-03-08T16:26:34;1999.90;;;999.90;;
37284;SDS011;23172;53.550;9.964;2024-03-08T16:31:36;1999.90;;;999.90;;
37284;SDS011;23172;53.550;9.964;2024-03-08T16:36:42;1999.90;;;999.90;;
37284;SDS011;23172;53.550;9.964;2024-03-08T16:41:44;1999.90;;;999.90;;
37284;SDS011;23172;53.550;9.964;2024-03-08T16:46:46;1999.90;;;999.90;;
37284;SDS011;23172;53.550;9.964;2024-03-08T16:51:50;1999.90;;;999.90;;
37284;SDS011;23172;53.550;9.964;2024-03-08T16:56:52;1999.90;;;999.90;;
37284;SDS011;23172;53.550;9.964;2024-03-08T17:01:54;1999.90;;;999.90;;
37284;SDS011;23172;53.550;9.964;2024-03-08T17:06:57;1999.90;;;999.90;;
37284;SDS011;23172;53.550;9.964;2024-03-08T17:11:59;1999.90;;;999.90;;
37284;SDS011;23172;53.550;9.964;2024-03-08T17:17:04;1999.90;;;999.90;;
37284;SDS011;23172;53.550;9.964;2024-03-08T17:22:09;1999.90;;;999.90;;
37284;SDS011;23172;53.550;9.964;2024-03-08T17:27:11;1999.90;;;999.90;;
37284;SDS011;23172;53.550;9.964;2024-03-08T17:32:14;1999.90;;;999.90;;
37284;SDS011;23172;53.550;9.964;2024-03-08T17:37:17;1999.90;;;999.90;;
37284;SDS011;23172;53.550;9.964;2024-03-08T17:42:19;1999.90;;;999.90;;
37284;SDS011;23172;53.550;9.964;2024-03-08T17:47:22;1999.90;;;999.90;;
37284;SDS011;23172;53.550;9.964;2024-03-08T17:52:27;1999.90;;;999.90;;
37284;SDS011;23172;53.550;9.964;2024-03-08T17:57:29;1999.90;;;999.90;;
37284;SDS011;23172;53.550;9.964;2024-03-08T18:02:31;1999.90;;;999.90;;
37284;SDS011;23172;53.550;9.964;2024-03-08T18:07:36;1999.90;;;999.90;;
37284;SDS011;23172;53.550;9.964;2024-03-08T18:12:38;1999.90;;;999.90;;
37284;SDS011;23172;53.550;9.964;2024-03-08T18:17:40;1999.90;;;999.90;;
37284;SDS011;23172;53.550;9.964;2024-03-08T18:22:44;1999.90;;;999.90;;
37284;SDS011;23172;53.550;9.964;2024-03-08T18:27:45;1999.90;;;999.90;;
37284;SDS011;23172;53.550;9.964;2024-03-08T18:32:48;1999.90;;;999.90;;
37284;SDS011;23172;53.550;9.964;2024-03-08T18:37:52;1999.90;;;999.90;;
37284;SDS011;23172;53.550;9.964;2024-03-08T18:42:55;1999.90;;;999.90;;
37284;SDS011;23172;53.550;9.964;2024-03-08T18:47:57;1999.90;;;999.90;;
37284;SDS011;23172;53.550;9.964;2024-03-08T18:53:01;1999.90;;;999.90;;
37284;SDS011;23172;53.550;9.964;2024-03-08T18:58:03;1999.90;;;999.90;;
37284;SDS011;23172;53.550;9.964;2024-03-08T19:03:06;1999.90;;;999.90;;
37284;SDS011;23172;53.550;9.964;2024-03-08T19:08:11;1999.90;;;999.90;;
37284;SDS011;23172;53.550;9.964;2024-03-08T19:13:13;1999.90;;;999.90;;
37284;SDS011;23172;53.550;9.964;2024-03-08T19:18:16;1999.90;;;999.90;;
37284;SDS011;23172;53.550;9.964;2024-03-08T19:23:20;1999.90;;;999.90;;
37284;SDS011;23172;53.550;9.964;2024-03-08T19:28:22;1999.90;;;999.90;;
37284;SDS011;23172;53.550;9.964;2024-03-08T19:33:25;1999.90;;;999.90;;
37284;SDS011;23172;53.550;9.964;2024-03-08T19:38:28;1999.90;;;999.90;;
37284;SDS011;23172;53.550;9.964;2024-03-08T19:43:31;1999.90;;;999.90;;
37284;SDS011;23172;53.550;9.964;2024-03-08T19:48:33;1999.90;;;999.90;;
37284;SDS011;23172;53.550;9.964;2024-03-08T19:53:36;1999.90;;;999.90;;
37284;SDS011;23172;53.550;9.964;2024-03-08T19:58:39;1999.90;;;999.90;;
37284;SDS011;23172;53.550;9.964;2024-03-08T20:03:42;1999.90;;;999.90;;
37284;SDS011;23172;53.550;9.964;2024-03-08T20:08:46;1999.90;;;999.90;;
37284;SDS011;23172;53.550;9.964;2024-03-08T20:13:47;1999.90;;;999.90;;
37284;SDS011;23172;53.550;9.964;2024-03-08T20:18:49;1999.90;;;999.90;;
37284;SDS011;23172;53.550;9.964;2024-03-08T20:23:53;1999.90;;;999.90;;
37284;SDS011;23172;53.550;9.964;2024-03-08T20:28:55;1999.90;;;999.90;;
37284;SDS011;23172;53.550;9.964;2024-03-08T20:33:57;1999.90;;;999.90;;
37284;SDS011;23172;53.550;9.964;2024-03-08T20:39:01;1999.90;;;999.90;;
37284;SDS011;23172;53.550;9.964;2024-03-08T20:44:03;1999.90;;;999.90;;
37284;SDS011;23172;53.550;9.964;2024-03-08T20:49:07;1999.90;;;999.90;;
37284;SDS011;23172;53.550;9.964;2024-03-08T20:54:10;1999.90;;;999.90;;
37284;SDS011;23172;53.550;9.964;2024-03-08T20:59:13;1999.90;;;999.90;;
37284;SDS011;23172;53.550;9.964;2024-03-08T21:04:15;1999.90;;;999.90;;
37284;SDS011;23172;53.550;9.964;2024-03-08T21:09:18;1999.90;;;999.90;;
37284;SDS011;23172;53.550;9.964;2024-03-08T21:14:23;1999.90;;;999.90;;
37284;SDS011;23172;53.550;9.964;2024-03-08T21:19:24;1999.90;;;999.90;;
37284;SDS011;23172;53.550;9.964;2024-03-08T21:24:29;1999.90;;;999.90;;
37284;SDS011;23172;53.550;9.964;2024-03-08T21:29:31;1999.90;;;999.90;;
37284;SDS011;23172;53.550;9.964;2024-03-08T21:34:37;1999.90;;;999.90;;
37284;SDS011;23172;53.550;9.964;2024-03-08T21:39:41;1999.90;;;999.90;;
37284;SDS011;23172;53.550;9.964;2024-03-08T21:44:43;1999.90;;;999.90;;
37284;SDS011;23172;53.550;9.964;2024-03-08T21:49:46;1999.90;;;999.90;;
37284;SDS011;23172;53.550;9.964;2024-03-08T21:54:52;1999.90;;;999.90;;
37284;SDS011;23172;53.550;9.964;2024-03-08T21:59:54;1999.90;;;999.90;;
37284;SDS011;23172;53.550;9.964;2024-03-08T22:04:56;1999.90;;;999.90;;
37284;SDS011;23172;53.550;9.964;2024-03-08T22:09:59;1999.90;;;999.90;;
37284;SDS011;23172;53.550;9.964;2024-03-08T22:15:01;1999.90;;;999.90;;
37284;SDS011;23172;53.550;9.964;2024-03-08T22:20:04;1999.90;;;999.90;;
37284;SDS011;23172;53.550;9.964;2024-03-08T22:25:12;1999.90;;;999.90;;
37284;SDS011;23172;53.550;9.964;2024-03-08T22:30:15;1999.90;;;999.90;;
37284;SDS011;23172;53.550;9.964;2024-03-08T22:35:20;1999.90;;;999.90;;
37284;SDS011;23172;53.550;9.964;2024-03-08T22:40:25;1999.90;;;999.90;;
37284;SDS011;23172;53.550;9.964;2024-03-08T22:45:27;1999.90;;;999.90;;
37284;SDS011;23172;53.550;9.964;2024-03-08T22:50:30;1999.90;;;999.90;;
37284;SDS011;23172;53.550;9.964;2024-03-08T22:55:34;1999.90;;;999.90;;
37284;SDS011;23172;53.550;9.964;2024-03-08T23:00:36;1999.90;;;999.90;;
37284;SDS011;23172;53.550;9.964;2024-03-08T23:05:54;1999.90;;;999.90;;
37284;SDS011;23172;53.550;9.964;2024-03-08T23:10:59;1999.90;;;999.90;;
37284;SDS011;23172;53.550;9.964;2024-03-08T23:16:01;1999.90;;;999.90;;
37284;SDS011;23172;53.550;9.964;2024-03-08T23:21:07;1999.90;;;999.90;;
37284;SDS011;23172;53.550;9.964;2024-03-08T23:26:10;1999.90;;;999.90;;
37284;SDS011;23172;53.550;9.964;2024-03-08T23:31:15;1999.90;;;999.90;;
37284;SDS011;23172;53.550;9.964;2024-03-08T23:36:17;1999.90;;;999.90;;
37284;SDS011;23172;53.550;9.964;2024-03-08T23:41:21;1999.90;;;999.90;;
37284;SDS011;23172;53.550;9.964;2024-03-08T23:46:24;1999.90;;;999.90;;
37284;SDS011;23172;53.550;9.964;2024-03-08T23:51:26;1999.90;;;999.90;;
37284;SDS011;23172;53.550;9.964;2024-03-08T23:56:29;1999.90;;;999.90;;
